Time;durP1;ratioP1;P1;durP2;ratioP2;P2;SDS_P1;SDS_P2;PMS_P1;PMS_P2;Temp;Humidity;BMP_temperature;BMP_pressure;BME280_temperature;BME280_humidity;BME280_pressure;Samples;Min_cycle;Max_cycle;Signal;HPM_P1;HPM_P2
2021/01/08 00:02:19;;;;;;;5.25;1.20;;;3.90;99.90;;;;;;5109029;28;20082;-70
2021/01/08 00:04:44;;;;;;;2.38;0.90;;;3.90;99.90;;;;;;5108818;28;20039;-70
2021/01/08 00:07:11;;;;;;;9.10;1.20;;;3.90;99.90;;;;;;5104154;28;20035;-69
2021/01/08 00:09:37;;;;;;;3.35;0.80;;;3.90;99.90;;;;;;5098233;28;20028;-71
2021/01/08 00:12:06;;;;;;;6.95;1.30;;;3.90;99.90;;;;;;5110222;27;20405;-70
2021/01/08 00:14:33;;;;;;;1.10;0.82;;;3.90;99.90;;;;;;5121937;27;20024;-69
2021/01/08 00:17:01;;;;;;;10.55;1.58;;;3.90;99.90;;;;;;5123884;27;20023;-70
2021/01/08 00:19:27;;;;;;;5.47;1.45;;;4.00;99.90;;;;;;5103099;28;20379;-72
2021/01/08 00:21:54;;;;;;;5.68;1.70;;;4.00;99.90;;;;;;5101738;28;20044;-70
2021/01/08 00:24:20;;;;;;;10.95;2.38;;;3.90;99.90;;;;;;5097719;28;20116;-69
2021/01/08 00:26:49;;;;;;;6.72;2.13;;;3.90;99.90;;;;;;5100007;28;20443;-71
2021/01/08 00:29:16;;;;;;;6.75;2.50;;;3.90;99.90;;;;;;5108541;28;20142;-71
2021/01/08 00:31:46;;;;;;;5.07;2.13;;;3.90;99.90;;;;;;5100179;28;20042;-70
2021/01/08 00:34:17;;;;;;;8.93;2.05;;;3.80;99.90;;;;;;5105847;28;20031;-70
2021/01/08 00:36:54;;;;;;;11.77;3.05;;;3.80;99.90;;;;;;5108556;28;20037;-69
2021/01/08 00:39:20;;;;;;;6.38;2.60;;;3.80;99.90;;;;;;5089478;28;20019;-70
2021/01/08 00:41:47;;;;;;;8.93;2.38;;;3.70;99.90;;;;;;5105172;28;20042;-68
2021/01/08 00:44:13;;;;;;;9.38;2.25;;;3.70;99.90;;;;;;5122435;27;20019;-70
2021/01/08 00:46:40;;;;;;;4.93;1.83;;;3.70;99.90;;;;;;5130063;27;20047;-70
2021/01/08 00:49:07;;;;;;;4.53;1.70;;;3.70;99.90;;;;;;5122803;27;20537;-71
2021/01/08 00:51:34;;;;;;;5.05;1.98;;;3.70;99.90;;;;;;5128097;27;20449;-70
2021/01/08 00:54:00;;;;;;;3.88;1.60;;;3.70;99.90;;;;;;5094724;28;20130;-70
2021/01/08 00:56:26;;;;;;;3.95;1.92;;;3.70;99.90;;;;;;5121917;27;21129;-70
2021/01/08 00:58:52;;;;;;;4.70;1.77;;;3.70;99.90;;;;;;5112044;28;20036;-69
2021/01/08 01:01:18;;;;;;;6.25;2.17;;;3.70;99.90;;;;;;5104691;28;20084;-69
2021/01/08 01:03:44;;;;;;;3.78;1.90;;;3.70;99.90;;;;;;5113110;28;20035;-69
2021/01/08 01:06:10;;;;;;;3.03;1.58;;;3.70;99.90;;;;;;5112303;28;20132;-70
2021/01/08 01:08:36;;;;;;;3.55;1.73;;;3.70;99.90;;;;;;5111222;28;20483;-70
2021/01/08 01:11:03;;;;;;;3.60;1.52;;;3.70;99.90;;;;;;5112202;28;20312;-69
2021/01/08 01:13:29;;;;;;;3.72;1.58;;;3.70;99.90;;;;;;5112480;28;20140;-72
2021/01/08 01:15:56;;;;;;;6.43;1.88;;;3.80;99.90;;;;;;5100316;28;20024;-69
2021/01/08 01:18:22;;;;;;;4.22;2.00;;;3.80;99.90;;;;;;5111316;28;20418;-70
2021/01/08 01:20:48;;;;;;;4.78;2.47;;;3.80;99.90;;;;;;5101305;28;20038;-71
2021/01/08 01:23:14;;;;;;;4.30;1.00;;;3.90;99.90;;;;;;5112149;28;20097;-71
2021/01/08 01:25:40;;;;;;;5.10;1.27;;;3.90;99.90;;;;;;5107208;28;20053;-71
2021/01/08 01:28:05;;;;;;;2.15;0.82;;;3.90;99.90;;;;;;5093273;28;20080;-69
2021/01/08 01:30:32;;;;;;;2.17;0.50;;;3.80;99.90;;;;;;5105282;28;20019;-70
2021/01/08 01:33:01;;;;;;;1.77;0.43;;;3.80;99.90;;;;;;5111019;28;20032;-70
2021/01/08 01:35:29;;;;;;;1.52;0.30;;;3.80;99.90;;;;;;5103344;28;20099;-69
2021/01/08 01:37:54;;;;;;;0.47;0.20;;;3.70;99.90;;;;;;5113281;27;20085;-71
2021/01/08 01:40:20;;;;;;;0.75;0.40;;;3.70;99.90;;;;;;5120067;27;20015;-68
2021/01/08 01:42:46;;;;;;;2.80;0.63;;;3.70;99.90;;;;;;5110269;27;20035;-70
2021/01/08 01:48:36;;;;;;;1.13;0.30;;;3.70;99.90;;;;;;5112486;27;20063;-71
2021/01/08 01:51:10;;;;;;;1.30;0.25;;;3.60;99.90;;;;;;5109710;28;20027;-70
2021/01/08 01:53:36;;;;;;;1.20;0.30;;;3.60;99.90;;;;;;5113651;27;20031;-71
2021/01/08 01:56:02;;;;;;;4.55;0.70;;;3.60;99.90;;;;;;5098090;27;20026;-71
2021/01/08 01:58:27;;;;;;;0.22;0.22;;;3.60;99.90;;;;;;5111136;27;20084;-73
2021/01/08 02:00:56;;;;;;;2.55;0.63;;;3.70;99.90;;;;;;5111742;28;20027;-72
2021/01/08 02:03:39;;;;;;;3.15;0.50;;;3.70;99.90;;;;;;5112150;27;20024;-71
2021/01/08 02:06:30;;;;;;;0.70;0.40;;;3.70;99.90;;;;;;5102037;28;20051;-69
2021/01/08 02:09:02;;;;;;;3.10;0.45;;;3.70;99.90;;;;;;5108938;28;20111;-70
2021/01/08 02:11:30;;;;;;;3.33;0.63;;;3.70;99.90;;;;;;5113784;27;20130;-70
2021/01/08 02:14:04;;;;;;;3.15;0.60;;;3.70;99.90;;;;;;5110547;27;20084;-70
2021/01/08 02:16:33;;;;;;;1.63;0.60;;;3.70;99.90;;;;;;5111655;28;20565;-70
2021/01/08 02:18:59;;;;;;;8.75;0.80;;;3.70;99.90;;;;;;5116885;27;20035;-72
2021/01/08 02:21:33;;;;;;;2.80;0.55;;;3.80;99.90;;;;;;5106741;28;20027;-68
2021/01/08 02:24:01;;;;;;;2.30;0.40;;;3.80;99.90;;;;;;5111409;28;20031;-69
2021/01/08 02:26:27;;;;;;;2.97;0.47;;;3.80;99.90;;;;;;5110984;28;20147;-69
2021/01/08 02:28:53;;;;;;;3.92;0.77;;;3.80;99.90;;;;;;5109987;28;20052;-71
2021/01/08 02:31:19;;;;;;;0.60;0.32;;;3.80;99.90;;;;;;5108001;28;20043;-69
2021/01/08 02:33:45;;;;;;;2.55;0.40;;;3.80;99.90;;;;;;5129894;27;20054;-70
2021/01/08 02:36:11;;;;;;;0.43;0.40;;;3.80;99.90;;;;;;5111462;27;20023;-69
2021/01/08 02:38:38;;;;;;;1.27;0.45;;;3.80;99.90;;;;;;5113892;27;20435;-68
2021/01/08 02:41:07;;;;;;;4.40;0.50;;;3.80;99.90;;;;;;5101541;27;20024;-71
2021/01/08 02:43:34;;;;;;;2.30;0.57;;;3.80;99.90;;;;;;5113974;27;20114;-70
2021/01/08 02:46:02;;;;;;;3.30;0.60;;;3.80;99.90;;;;;;5109992;27;20035;-68
2021/01/08 02:48:28;;;;;;;1.30;0.60;;;3.80;99.90;;;;;;5111161;28;20039;-69
2021/01/08 02:50:53;;;;;;;3.85;0.60;;;3.80;99.90;;;;;;5109990;27;20230;-70
2021/01/08 02:53:22;;;;;;;7.45;1.50;;;3.80;99.90;;;;;;5112041;28;20268;-68
2021/01/08 02:56:16;;;;;;;2.03;0.73;;;3.80;99.90;;;;;;5106565;28;20103;-72
2021/01/08 02:58:44;;;;;;;1.88;0.60;;;3.80;99.90;;;;;;5109280;28;20043;-68
2021/01/08 03:01:10;;;;;;;1.45;0.40;;;3.80;99.90;;;;;;5112727;27;20480;-69
2021/01/08 03:03:36;;;;;;;2.47;0.65;;;3.70;99.90;;;;;;5107965;28;20028;-68
2021/01/08 03:06:02;;;;;;;3.78;0.60;;;3.70;99.90;;;;;;5101015;27;20051;-69
2021/01/08 03:08:31;;;;;;;2.83;0.50;;;3.70;99.90;;;;;;5100556;28;20040;-68
2021/01/08 03:10:57;;;;;;;1.08;0.80;;;3.70;99.90;;;;;;5092667;28;20039;-70
2021/01/08 03:13:27;;;;;;;3.45;0.90;;;3.70;99.90;;;;;;5110233;28;20031;-69
2021/01/08 03:15:53;;;;;;;1.70;0.70;;;3.70;99.90;;;;;;5109456;28;20114;-69
2021/01/08 03:18:18;;;;;;;0.75;0.63;;;3.70;99.90;;;;;;5110746;28;20115;-69
2021/01/08 03:20:44;;;;;;;0.80;0.70;;;3.70;99.90;;;;;;5111043;28;20055;-69
2021/01/08 03:23:10;;;;;;;2.33;1.27;;;3.70;99.90;;;;;;5102387;28;20070;-69
2021/01/08 03:25:37;;;;;;;7.15;1.02;;;3.80;99.90;;;;;;5110924;28;20020;-70
2021/01/08 03:28:03;;;;;;;0.65;0.65;;;3.80;99.90;;;;;;5109239;28;20026;-68
2021/01/08 03:30:29;;;;;;;0.73;0.68;;;3.70;99.90;;;;;;5106622;28;20043;-68
2021/01/08 03:32:54;;;;;;;1.02;0.52;;;3.80;99.90;;;;;;5108867;28;20084;-69
2021/01/08 03:35:20;;;;;;;0.75;0.40;;;3.80;99.90;;;;;;5107788;28;20020;-68
2021/01/08 03:37:47;;;;;;;2.50;0.50;;;3.80;99.90;;;;;;5108411;27;20635;-69
2021/01/08 03:40:12;;;;;;;1.13;0.22;;;3.80;99.90;;;;;;5106093;27;20107;-70
2021/01/08 03:42:38;;;;;;;2.50;0.60;;;3.80;99.90;;;;;;5109669;28;20122;-68
2021/01/08 03:45:04;;;;;;;1.75;0.60;;;3.80;99.90;;;;;;5109728;28;20110;-67
2021/01/08 03:47:30;;;;;;;3.20;0.82;;;3.80;99.90;;;;;;5109331;28;20351;-68
2021/01/08 03:49:56;;;;;;;0.65;0.45;;;3.80;99.90;;;;;;5109108;28;20055;-72
2021/01/08 03:52:21;;;;;;;3.20;0.60;;;3.70;99.90;;;;;;5108140;28;20536;-68
2021/01/08 03:54:47;;;;;;;3.40;0.60;;;3.70;99.90;;;;;;5106821;28;20043;-69
2021/01/08 03:57:12;;;;;;;2.53;0.80;;;3.80;99.90;;;;;;5115756;28;20027;-68
2021/01/08 03:59:38;;;;;;;1.35;0.50;;;3.80;99.90;;;;;;5112886;28;20396;-69
2021/01/08 04:02:06;;;;;;;5.20;0.50;;;3.80;99.90;;;;;;5115287;27;20078;-69
2021/01/08 04:04:32;;;;;;;5.90;0.50;;;3.80;99.90;;;;;;5100754;27;20044;-69
2021/01/08 04:06:58;;;;;;;1.13;0.50;;;3.80;99.90;;;;;;5092203;28;20077;-69
2021/01/08 04:09:24;;;;;;;0.82;0.30;;;3.80;99.90;;;;;;5070222;28;20020;-68
2021/01/08 04:11:49;;;;;;;4.40;0.65;;;3.70;99.90;;;;;;5082518;28;20465;-68
2021/01/08 04:14:15;;;;;;;5.72;0.50;;;3.80;99.90;;;;;;5069562;28;20028;-69
2021/01/08 04:16:43;;;;;;;1.30;0.65;;;3.80;99.90;;;;;;5080664;28;20032;-67
2021/01/08 04:19:09;;;;;;;2.55;0.47;;;3.80;99.90;;;;;;5089553;28;20046;-68
2021/01/08 04:21:35;;;;;;;1.65;0.60;;;3.80;99.90;;;;;;5084551;28;20529;-68
2021/01/08 04:24:02;;;;;;;5.40;0.85;;;3.80;99.90;;;;;;5090728;28;20521;-71
2021/01/08 04:26:27;;;;;;;3.72;0.50;;;3.80;99.90;;;;;;5087400;28;20413;-67
2021/01/08 04:28:53;;;;;;;2.45;0.52;;;3.80;99.90;;;;;;5082312;28;20029;-69
2021/01/08 04:31:19;;;;;;;1.85;0.85;;;3.90;99.90;;;;;;5099241;28;20035;-69
2021/01/08 04:33:44;;;;;;;4.68;0.80;;;3.80;99.90;;;;;;5060785;28;20070;-68
2021/01/08 04:36:10;;;;;;;1.10;0.80;;;3.80;99.90;;;;;;5100271;28;20026;-68
2021/01/08 04:38:40;;;;;;;0.55;0.52;;;3.80;99.90;;;;;;5091968;28;20461;-70
2021/01/08 04:41:06;;;;;;;2.03;0.43;;;3.90;99.90;;;;;;5097796;28;20031;-68
2021/01/08 04:43:33;;;;;;;3.97;0.68;;;3.80;99.90;;;;;;5098705;28;20473;-70
2021/01/08 04:46:17;;;;;;;1.85;0.57;;;3.80;99.90;;;;;;5090934;28;20035;-69
2021/01/08 04:48:43;;;;;;;3.78;0.70;;;3.80;99.90;;;;;;5096892;28;20028;-71
2021/01/08 04:51:12;;;;;;;3.97;0.70;;;3.80;99.90;;;;;;5090271;28;20113;-70
2021/01/08 04:53:38;;;;;;;4.03;0.65;;;3.80;99.90;;;;;;5080189;28;20118;-69
2021/01/08 04:56:08;;;;;;;2.78;0.75;;;3.80;99.90;;;;;;5081691;28;20024;-70
2021/01/08 04:58:34;;;;;;;2.60;0.90;;;3.80;99.90;;;;;;5071153;28;20080;-68
2021/01/08 05:01:01;;;;;;;4.13;1.10;;;3.80;99.90;;;;;;5095601;28;20460;-71
2021/01/08 05:03:30;;;;;;;1.17;1.10;;;3.80;99.90;;;;;;5071986;28;20020;-70
2021/01/08 05:05:57;;;;;;;2.28;1.38;;;3.80;99.90;;;;;;5103086;28;20039;-68
2021/01/08 05:08:22;;;;;;;5.38;1.40;;;3.80;99.90;;;;;;5103892;28;20069;-70
2021/01/08 05:11:07;;;;;;;1.95;0.98;;;3.80;99.90;;;;;;5107896;28;20271;-69
2021/01/08 05:13:34;;;;;;;1.58;1.20;;;3.80;99.90;;;;;;5102583;28;20480;-70
2021/01/08 05:16:01;;;;;;;1.65;1.20;;;3.80;99.90;;;;;;5115671;28;20040;-70
2021/01/08 05:18:32;;;;;;;4.15;1.17;;;3.80;99.90;;;;;;5110723;28;20024;-73
2021/01/08 05:20:57;;;;;;;3.22;1.30;;;3.80;99.90;;;;;;5109690;28;20028;-71
2021/01/08 05:23:26;;;;;;;5.65;1.42;;;3.80;99.90;;;;;;5109233;28;20408;-70
2021/01/08 05:25:53;;;;;;;2.97;0.90;;;3.80;99.90;;;;;;5108505;28;20024;-70
2021/01/08 05:28:19;;;;;;;4.85;1.10;;;3.80;99.90;;;;;;5113280;27;20024;-71
2021/01/08 05:30:45;;;;;;;2.28;1.02;;;3.80;99.90;;;;;;5127923;27;20022;-70
2021/01/08 05:33:15;;;;;;;4.22;1.10;;;3.70;99.90;;;;;;5113366;27;20043;-71
2021/01/08 05:35:42;;;;;;;2.65;1.10;;;3.80;99.90;;;;;;5129213;27;20114;-70
2021/01/08 05:38:09;;;;;;;1.45;1.02;;;3.80;99.90;;;;;;5116191;27;20086;-70
2021/01/08 05:40:38;;;;;;;1.85;0.90;;;3.90;99.90;;;;;;5118809;27;20387;-69
2021/01/08 05:43:04;;;;;;;2.72;0.98;;;4.00;99.90;;;;;;5121102;27;20095;-70
2021/01/08 05:45:31;;;;;;;3.85;1.35;;;4.00;99.90;;;;;;5118270;27;20032;-70
2021/01/08 05:47:58;;;;;;;2.83;1.20;;;4.00;99.90;;;;;;5119284;27;20045;-70
2021/01/08 05:50:25;;;;;;;4.30;1.40;;;4.10;99.90;;;;;;5103663;27;20372;-70
2021/01/08 05:53:04;;;;;;;3.08;1.08;;;4.30;99.90;;;;;;5090917;28;20040;-70
2021/01/08 05:55:44;;;;;;;2.05;1.33;;;4.40;99.90;;;;;;5119900;27;20047;-70
2021/01/08 05:58:23;;;;;;;1.38;0.60;;;4.40;99.90;;;;;;5114443;27;20054;-70
2021/01/08 06:00:59;;;;;;;1.13;0.60;;;4.50;99.90;;;;;;5111695;27;20124;-71
2021/01/08 06:03:25;;;;;;;2.00;0.85;;;4.30;99.90;;;;;;5116360;27;20046;-70
2021/01/08 06:05:56;;;;;;;3.50;0.95;;;4.10;99.90;;;;;;5123186;27;20667;-70
2021/01/08 06:08:25;;;;;;;3.63;0.73;;;4.00;99.90;;;;;;5115167;27;20071;-70
2021/01/08 06:10:53;;;;;;;0.98;0.63;;;4.00;99.90;;;;;;5124635;27;20031;-69
2021/01/08 06:13:23;;;;;;;3.60;0.63;;;3.90;99.90;;;;;;5105863;27;20047;-68
2021/01/08 06:15:51;;;;;;;2.60;0.73;;;4.00;99.90;;;;;;5123150;27;20579;-71
2021/01/08 06:18:19;;;;;;;3.05;0.90;;;4.10;99.90;;;;;;5116593;27;20031;-69
2021/01/08 06:20:49;;;;;;;1.65;0.88;;;4.40;99.90;;;;;;5117771;27;20107;-69
2021/01/08 06:23:36;;;;;;;2.67;1.25;;;4.30;99.90;;;;;;5123756;27;20023;-70
2021/01/08 06:26:04;;;;;;;2.95;1.10;;;4.40;99.90;;;;;;5114638;27;20023;-70
2021/01/08 06:28:35;;;;;;;3.33;1.10;;;4.40;99.90;;;;;;5118372;27;20031;-69
2021/01/08 06:31:12;;;;;;;2.83;1.10;;;4.30;99.90;;;;;;5128441;27;20108;-69
2021/01/08 06:33:38;;;;;;;2.78;1.10;;;4.20;99.90;;;;;;5121334;27;20028;-70
2021/01/08 06:36:18;;;;;;;3.97;0.98;;;4.20;99.90;;;;;;5117605;27;20357;-71
2021/01/08 06:38:46;;;;;;;3.95;1.08;;;4.30;99.90;;;;;;5118290;27;20105;-70
2021/01/08 06:41:14;;;;;;;1.45;1.10;;;4.50;99.90;;;;;;5115905;27;20023;-69
2021/01/08 06:43:45;;;;;;;6.97;1.35;;;4.50;99.90;;;;;;5126154;27;20038;-69
2021/01/08 06:46:24;;;;;;;6.30;1.63;;;4.50;99.90;;;;;;5111467;27;20034;-69
2021/01/08 06:48:56;;;;;;;4.90;1.17;;;4.40;99.90;;;;;;5117282;27;20046;-70
2021/01/08 06:51:33;;;;;;;4.87;1.60;;;4.50;99.90;;;;;;5121989;27;20023;-71
2021/01/08 06:54:01;;;;;;;4.97;1.65;;;4.60;99.90;;;;;;5111234;27;20134;-69
2021/01/08 06:56:34;;;;;;;3.03;1.38;;;4.70;99.90;;;;;;5118135;27;20019;-68
2021/01/08 06:59:01;;;;;;;5.90;1.70;;;4.80;99.90;;;;;;5121447;27;20020;-70
2021/01/08 07:01:52;;;;;;;3.28;1.55;;;4.80;99.90;;;;;;5110389;27;20472;-69
2021/01/08 07:04:20;;;;;;;2.53;1.55;;;4.80;99.90;;;;;;5108472;27;20519;-69
2021/01/08 07:06:48;;;;;;;3.60;1.38;;;4.80;99.90;;;;;;5105764;28;20028;-70
2021/01/08 07:09:15;;;;;;;3.75;1.35;;;4.80;99.90;;;;;;5110274;27;20023;-68
2021/01/08 07:11:41;;;;;;;3.15;1.52;;;4.70;99.90;;;;;;5111177;27;20024;-68
2021/01/08 07:14:26;;;;;;;3.45;1.38;;;4.70;99.90;;;;;;5108983;28;20035;-68
2021/01/08 07:16:58;;;;;;;6.10;2.00;;;4.70;99.90;;;;;;5111102;27;20019;-67
2021/01/08 07:19:29;;;;;;;2.50;1.53;;;4.70;99.90;;;;;;5112053;27;20477;-68
2021/01/08 07:22:00;;;;;;;7.78;1.83;;;4.50;99.90;;;;;;5110793;28;20032;-69
2021/01/08 07:24:29;;;;;;;5.35;2.22;;;4.50;99.90;;;;;;5110361;27;20476;-68
2021/01/08 07:27:25;;;;;;;2.90;1.63;;;4.50;99.90;;;;;;5113180;27;20026;-70
2021/01/08 07:29:52;;;;;;;4.15;1.92;;;4.60;99.90;;;;;;5105329;28;20024;-68
2021/01/08 07:32:42;;;;;;;4.32;2.00;;;4.60;99.90;;;;;;5112823;27;20472;-71
2021/01/08 07:35:30;;;;;;;4.05;1.38;;;4.70;99.90;;;;;;5112322;27;20115;-71
2021/01/08 07:38:08;;;;;;;7.68;2.40;;;4.60;99.90;;;;;;5112591;27;20027;-69
2021/01/08 07:40:36;;;;;;;4.40;1.95;;;4.60;99.90;;;;;;5113704;27;20027;-67
2021/01/08 07:43:03;;;;;;;2.90;1.63;;;4.70;99.90;;;;;;5109219;28;20115;-69
2021/01/08 07:45:54;;;;;;;5.80;2.05;;;4.70;99.90;;;;;;5110471;27;20031;-69
2021/01/08 07:48:38;;;;;;;3.42;2.25;;;4.70;99.90;;;;;;5109922;27;20028;-68
2021/01/08 07:51:13;;;;;;;2.92;2.10;;;4.70;99.90;;;;;;5109181;28;20024;-71
2021/01/08 07:53:44;;;;;;;7.05;2.45;;;4.70;99.90;;;;;;5109838;28;20028;-68
2021/01/08 07:56:21;;;;;;;6.90;2.20;;;4.70;99.90;;;;;;5107207;27;20038;-72
2021/01/08 07:58:59;;;;;;;4.40;1.95;;;4.70;99.90;;;;;;5117734;27;20023;-68
2021/01/08 08:01:25;;;;;;;6.50;2.10;;;4.60;99.90;;;;;;5109071;28;20073;-69
2021/01/08 08:04:07;;;;;;;6.15;2.20;;;4.60;99.90;;;;;;5105634;28;20476;-69
2021/01/08 08:06:35;;;;;;;4.72;1.95;;;4.60;99.90;;;;;;5087276;28;20050;-69
2021/01/08 08:09:03;;;;;;;6.88;2.72;;;4.70;99.90;;;;;;5088855;28;20024;-70
2021/01/08 08:11:35;;;;;;;7.00;2.80;;;4.70;99.90;;;;;;5089096;28;20112;-70
2021/01/08 08:14:03;;;;;;;8.80;2.47;;;4.70;99.90;;;;;;5054999;28;20472;-69
2021/01/08 08:16:36;;;;;;;7.43;1.85;;;4.70;99.90;;;;;;5057456;28;20012;-70
2021/01/08 08:19:03;;;;;;;9.18;1.92;;;4.70;99.90;;;;;;5089077;28;20117;-70
2021/01/08 08:21:29;;;;;;;9.25;2.47;;;4.50;99.90;;;;;;5093999;28;20042;-73
2021/01/08 08:23:56;;;;;;;7.43;1.98;;;4.60;99.90;;;;;;5077973;28;20174;-68
2021/01/08 08:26:23;;;;;;;5.15;2.42;;;4.60;99.90;;;;;;5100933;28;20065;-69
2021/01/08 08:29:26;;;;;;;9.18;2.83;;;4.70;99.90;;;;;;5080580;28;20032;-69
2021/01/08 08:31:52;;;;;;;3.78;2.05;;;4.60;99.90;;;;;;4976562;28;20402;-69
2021/01/08 08:34:29;;;;;;;6.65;2.63;;;4.50;99.90;;;;;;5069036;28;20040;-69
2021/01/08 08:37:10;;;;;;;6.68;2.50;;;4.40;99.90;;;;;;5070027;28;20076;-68
2021/01/08 08:39:36;;;;;;;4.68;2.45;;;4.40;99.90;;;;;;5070671;28;20082;-69
2021/01/08 08:42:01;;;;;;;9.50;2.50;;;4.30;99.90;;;;;;5088208;28;20103;-70
2021/01/08 08:44:27;;;;;;;10.98;3.13;;;4.30;99.90;;;;;;5088892;28;20020;-70
2021/01/08 08:46:59;;;;;;;3.55;2.30;;;4.30;99.90;;;;;;5087578;28;20025;-69
2021/01/08 08:49:32;;;;;;;9.63;2.72;;;4.20;99.90;;;;;;5069110;28;20512;-68
2021/01/08 08:51:59;;;;;;;6.53;2.47;;;4.30;99.90;;;;;;5088902;28;20024;-70
2021/01/08 08:54:24;;;;;;;7.78;2.50;;;4.40;99.90;;;;;;5087647;28;20055;-71
2021/01/08 08:56:58;;;;;;;8.07;2.22;;;4.30;99.90;;;;;;5075164;28;20105;-70
2021/01/08 08:59:41;;;;;;;4.50;2.53;;;4.30;99.90;;;;;;5088563;28;20024;-68
2021/01/08 09:02:08;;;;;;;9.10;2.90;;;4.30;99.90;;;;;;5080868;28;20522;-68
2021/01/08 09:04:34;;;;;;;6.10;2.83;;;4.40;99.90;;;;;;5086135;28;20031;-68
2021/01/08 09:07:10;;;;;;;4.57;2.42;;;4.40;99.90;;;;;;5098448;28;20076;-68
2021/01/08 09:09:40;;;;;;;15.07;3.38;;;4.40;99.90;;;;;;5112347;28;20026;-70
2021/01/08 09:12:42;;;;;;;7.22;2.85;;;4.40;99.90;;;;;;5110896;28;20185;-68
2021/01/08 09:15:25;;;;;;;5.60;3.13;;;4.40;99.90;;;;;;5102069;28;20032;-68
2021/01/08 09:18:14;;;;;;;5.80;3.35;;;4.30;99.90;;;;;;5110415;27;20484;-69
2021/01/08 09:20:52;;;;;;;10.68;3.55;;;4.30;99.90;;;;;;5116180;28;20059;-68
2021/01/08 09:23:18;;;;;;;7.53;4.20;;;4.20;99.90;;;;;;5119431;28;20484;-67
2021/01/08 09:25:44;;;;;;;9.50;4.07;;;4.20;99.90;;;;;;5122286;28;20059;-70
2021/01/08 09:28:17;;;;;;;8.85;4.40;;;4.30;99.90;;;;;;5119629;28;20055;-67
2021/01/08 09:30:52;;;;;;;7.35;3.85;;;4.40;99.90;;;;;;5116473;28;20050;-70
2021/01/08 09:33:18;;;;;;;11.60;3.42;;;4.40;99.90;;;;;;5112583;28;20042;-67
2021/01/08 09:35:45;;;;;;;7.72;3.75;;;4.30;99.90;;;;;;5112996;28;20023;-69
2021/01/08 09:38:14;;;;;;;5.55;3.72;;;4.30;99.90;;;;;;5112930;27;20031;-69
2021/01/08 09:40:41;;;;;;;7.22;3.28;;;4.20;99.90;;;;;;5116448;27;20024;-70
2021/01/08 09:43:15;;;;;;;7.28;3.45;;;4.20;99.90;;;;;;5115868;27;20365;-68
2021/01/08 09:45:42;;;;;;;7.78;3.40;;;4.10;99.90;;;;;;5117661;27;20027;-67
2021/01/08 09:48:20;;;;;;;7.45;3.35;;;4.20;99.90;;;;;;5114707;27;20031;-68
2021/01/08 09:50:46;;;;;;;6.35;4.10;;;4.20;99.90;;;;;;5112159;27;20024;-68
2021/01/08 09:53:12;;;;;;;8.70;3.63;;;4.20;99.90;;;;;;5109945;28;20042;-71
2021/01/08 09:55:38;;;;;;;10.80;3.47;;;4.20;99.90;;;;;;5111636;28;20019;-68
2021/01/08 09:58:04;;;;;;;12.00;3.85;;;4.30;99.90;;;;;;5123965;27;20024;-69
2021/01/08 10:00:39;;;;;;;7.93;3.15;;;4.30;99.90;;;;;;5118059;27;20098;-68
2021/01/08 10:03:05;;;;;;;8.73;3.13;;;4.20;99.90;;;;;;5119494;27;20118;-69
2021/01/08 10:05:34;;;;;;;7.80;3.25;;;4.20;99.90;;;;;;5113884;27;20040;-70
2021/01/08 10:08:04;;;;;;;7.93;2.80;;;4.30;99.90;;;;;;5115550;27;20086;-68
2021/01/08 10:10:40;;;;;;;5.82;3.00;;;4.40;99.90;;;;;;5106538;27;20104;-68
2021/01/08 10:13:14;;;;;;;5.38;2.85;;;4.20;99.90;;;;;;5113472;27;20121;-69
2021/01/08 10:15:43;;;;;;;10.07;3.33;;;4.20;99.90;;;;;;5103092;28;20028;-69
2021/01/08 10:18:26;;;;;;;7.18;2.83;;;4.20;99.90;;;;;;5115122;27;20097;-69
2021/01/08 10:20:54;;;;;;;5.68;3.05;;;4.20;99.90;;;;;;5108325;27;20362;-69
2021/01/08 10:23:24;;;;;;;4.30;3.13;;;4.10;99.90;;;;;;5112433;27;20492;-68
2021/01/08 10:25:51;;;;;;;3.22;2.72;;;4.10;99.90;;;;;;5107032;27;20121;-68
2021/01/08 10:28:20;;;;;;;5.32;2.88;;;4.20;99.90;;;;;;5110756;27;20490;-69
2021/01/08 10:30:48;;;;;;;5.28;2.70;;;4.40;99.90;;;;;;5111259;27;20439;-69
2021/01/08 10:33:15;;;;;;;4.68;2.85;;;4.40;99.90;;;;;;5110139;27;20035;-68
2021/01/08 10:35:54;;;;;;;3.63;2.70;;;4.50;99.90;;;;;;5099765;28;20433;-70
2021/01/08 10:38:21;;;;;;;4.82;2.03;;;4.60;99.90;;;;;;5111878;27;20467;-69
2021/01/08 10:40:47;;;;;;;4.43;2.00;;;4.80;99.90;;;;;;5112540;27;20085;-68
2021/01/08 10:43:13;;;;;;;4.50;1.90;;;4.50;99.90;;;;;;5112831;27;20046;-70
2021/01/08 10:45:39;;;;;;;2.75;2.03;;;4.50;99.90;;;;;;5111053;27;20440;-70
2021/01/08 10:48:05;;;;;;;6.00;2.17;;;4.50;99.90;;;;;;5112177;27;20044;-68
2021/01/08 10:50:32;;;;;;;2.45;1.92;;;4.60;99.90;;;;;;5109955;28;20027;-67
2021/01/08 10:52:59;;;;;;;2.85;2.00;;;4.80;99.90;;;;;;5116253;27;20065;-68
2021/01/08 10:55:24;;;;;;;5.45;1.95;;;4.70;99.90;;;;;;5110366;28;20491;-70
2021/01/08 10:57:51;;;;;;;1.60;1.50;;;4.60;99.90;;;;;;5109864;28;20028;-70
2021/01/08 11:00:19;;;;;;;1.48;1.38;;;4.40;99.90;;;;;;5109095;28;20464;-70
2021/01/08 11:02:44;;;;;;;3.80;1.83;;;4.40;99.90;;;;;;5108859;28;20027;-68
2021/01/08 11:05:12;;;;;;;2.40;1.48;;;4.50;99.90;;;;;;5110164;28;20043;-69
2021/01/08 11:07:38;;;;;;;4.22;2.00;;;4.50;99.90;;;;;;5110683;28;20026;-69
2021/01/08 11:10:06;;;;;;;2.90;1.98;;;4.50;99.90;;;;;;5107875;28;20092;-69
2021/01/08 11:12:33;;;;;;;2.72;2.03;;;4.50;99.90;;;;;;5119116;27;20066;-68
2021/01/08 11:14:59;;;;;;;3.10;2.20;;;4.50;99.90;;;;;;5116898;27;20062;-67
2021/01/08 11:17:27;;;;;;;2.05;1.88;;;4.50;99.90;;;;;;5110578;28;20092;-69
2021/01/08 11:19:52;;;;;;;4.45;2.30;;;4.40;99.90;;;;;;5101839;28;20115;-69
2021/01/08 11:22:21;;;;;;;1.85;1.70;;;4.40;99.90;;;;;;5110248;28;20111;-70
2021/01/08 11:24:47;;;;;;;2.92;2.22;;;4.30;99.90;;;;;;5103014;28;20090;-68
2021/01/08 11:27:13;;;;;;;2.97;1.58;;;4.30;99.90;;;;;;5106638;28;20388;-69
2021/01/08 11:29:38;;;;;;;2.30;1.95;;;4.30;99.90;;;;;;5109585;28;20020;-69
2021/01/08 11:32:08;;;;;;;1.90;1.70;;;4.50;99.90;;;;;;5110222;28;20024;-68
2021/01/08 11:34:35;;;;;;;1.42;1.33;;;4.70;99.90;;;;;;5109555;28;20028;-68
2021/01/08 11:37:02;;;;;;;3.38;1.80;;;4.70;99.90;;;;;;5110230;28;20386;-68
2021/01/08 11:39:28;;;;;;;5.90;1.40;;;4.50;99.90;;;;;;5109812;28;20073;-70
2021/01/08 11:41:55;;;;;;;5.75;1.75;;;4.40;99.90;;;;;;5109260;28;20016;-67
2021/01/08 11:44:21;;;;;;;1.80;1.33;;;4.30;99.90;;;;;;5117094;27;20774;-69
2021/01/08 11:46:48;;;;;;;1.42;1.33;;;4.30;99.90;;;;;;5114379;27;20031;-67
2021/01/08 11:49:14;;;;;;;1.90;1.25;;;4.40;99.90;;;;;;5104240;28;20035;-68
2021/01/08 11:51:40;;;;;;;1.52;1.40;;;4.40;99.90;;;;;;5116158;27;20027;-70
2021/01/08 11:54:05;;;;;;;2.22;1.52;;;4.40;99.90;;;;;;5109864;28;20658;-68
2021/01/08 11:56:32;;;;;;;1.65;1.30;;;4.40;99.90;;;;;;5109307;28;20533;-68
2021/01/08 11:58:59;;;;;;;1.23;1.10;;;4.40;99.90;;;;;;5109201;28;20039;-68
2021/01/08 12:01:28;;;;;;;3.58;1.63;;;4.50;99.90;;;;;;5109546;28;20380;-70
2021/01/08 12:03:56;;;;;;;4.43;1.67;;;4.60;99.90;;;;;;5109615;28;20171;-68
2021/01/08 12:06:29;;;;;;;2.25;2.00;;;4.60;99.90;;;;;;5108483;28;20161;-69
2021/01/08 12:08:56;;;;;;;5.43;2.30;;;4.60;99.90;;;;;;5105721;27;20023;-68
2021/01/08 12:11:23;;;;;;;4.80;2.58;;;4.50;99.90;;;;;;5114591;27;20024;-68
2021/01/08 12:13:50;;;;;;;2.90;2.60;;;4.40;99.90;;;;;;5117686;27;20039;-68
2021/01/08 12:16:24;;;;;;;3.00;2.42;;;4.40;99.90;;;;;;5104238;27;20051;-68
2021/01/08 12:18:52;;;;;;;3.78;2.53;;;4.50;99.90;;;;;;5094827;27;20035;-68
2021/01/08 12:21:28;;;;;;;3.60;2.53;;;4.50;99.90;;;;;;5108937;27;20179;-68
2021/01/08 12:23:54;;;;;;;5.10;2.00;;;4.50;99.90;;;;;;5113246;27;20580;-69
2021/01/08 12:26:21;;;;;;;2.72;1.90;;;4.70;99.90;;;;;;5100936;28;20059;-69
2021/01/08 12:28:48;;;;;;;3.22;2.08;;;4.60;99.90;;;;;;5102815;28;20050;-70
2021/01/08 12:31:23;;;;;;;3.17;2.05;;;4.50;99.90;;;;;;5113627;27;20131;-70
2021/01/08 12:33:49;;;;;;;5.18;1.85;;;4.40;99.90;;;;;;5108623;28;20032;-67
2021/01/08 12:36:17;;;;;;;2.53;1.95;;;4.40;99.90;;;;;;5114319;27;20031;-70
2021/01/08 12:38:44;;;;;;;2.33;2.13;;;4.30;99.90;;;;;;5113739;27;20015;-68
2021/01/08 12:41:10;;;;;;;2.42;2.22;;;4.40;99.90;;;;;;5107282;28;20015;-70
2021/01/08 12:43:35;;;;;;;3.22;2.08;;;4.40;99.90;;;;;;5114787;28;20039;-69
2021/01/08 12:46:01;;;;;;;4.47;2.05;;;4.30;99.90;;;;;;5117278;28;20080;-69
2021/01/08 12:48:27;;;;;;;2.35;2.10;;;4.20;99.90;;;;;;5115575;28;20094;-71
2021/01/08 12:50:52;;;;;;;2.40;2.10;;;4.10;99.90;;;;;;5099399;28;20115;-70
2021/01/08 12:53:18;;;;;;;2.55;2.25;;;4.10;99.90;;;;;;5110508;28;20048;-69
2021/01/08 12:55:47;;;;;;;2.20;1.70;;;4.10;99.90;;;;;;5111013;28;20012;-70
2021/01/08 12:58:12;;;;;;;2.65;1.80;;;4.20;99.90;;;;;;5110520;28;20072;-71
2021/01/08 13:00:38;;;;;;;2.33;2.13;;;4.20;99.90;;;;;;5097722;28;20103;-70
2021/01/08 13:03:05;;;;;;;2.95;1.90;;;4.10;99.90;;;;;;5104882;28;20039;-69
2021/01/08 13:05:32;;;;;;;2.08;1.85;;;4.10;99.90;;;;;;5109621;28;20146;-69
2021/01/08 13:07:57;;;;;;;4.07;1.80;;;4.20;99.90;;;;;;5109885;28;20031;-70
2021/01/08 13:10:23;;;;;;;1.90;1.80;;;4.20;99.90;;;;;;5111152;28;20073;-70
2021/01/08 13:12:50;;;;;;;2.00;1.70;;;4.20;99.90;;;;;;5107624;28;20039;-69